sensor_id;sensor_type;location;lat;lon;timestamp;P1;durP1;ratioP1;P2;durP2;ratioP2
45065;SDS011;30830;53.704;10.004;2023-05-16T00:01:55;4.07;;;1.92;;
45065;SDS011;30830;53.704;10.004;2023-05-16T00:04:21;3.97;;;2.20;;
45065;SDS011;30830;53.704;10.004;2023-05-16T00:06:47;4.75;;;1.80;;
45065;SDS011;30830;53.704;10.004;2023-05-16T00:09:13;4.93;;;2.00;;
45065;SDS011;30830;53.704;10.004;2023-05-16T00:11:41;8.43;;;1.80;;
45065;SDS011;30830;53.704;10.004;2023-05-16T00:14:07;3.40;;;2.08;;
45065;SDS011;30830;53.704;10.004;2023-05-16T00:16:32;2.90;;;2.22;;
45065;SDS011;30830;53.704;10.004;2023-05-16T00:19:00;6.40;;;2.20;;
45065;SDS011;30830;53.704;10.004;2023-05-16T00:21:26;4.30;;;3.13;;
45065;SDS011;30830;53.704;10.004;2023-05-16T00:23:52;3.47;;;2.00;;
45065;SDS011;30830;53.704;10.004;2023-05-16T00:26:18;8.02;;;2.20;;
45065;SDS011;30830;53.704;10.004;2023-05-16T00:28:43;2.65;;;1.95;;
45065;SDS011;30830;53.704;10.004;2023-05-16T00:31:09;2.55;;;2.30;;
45065;SDS011;30830;53.704;10.004;2023-05-16T00:33:34;3.08;;;1.98;;
45065;SDS011;30830;53.704;10.004;2023-05-16T00:36:00;2.20;;;2.00;;
45065;SDS011;30830;53.704;10.004;2023-05-16T00:38:26;4.97;;;2.42;;
45065;SDS011;30830;53.704;10.004;2023-05-16T00:40:51;3.42;;;2.05;;
45065;SDS011;30830;53.704;10.004;2023-05-16T00:43:17;3.17;;;2.13;;
45065;SDS011;30830;53.704;10.004;2023-05-16T00:45:42;4.53;;;2.30;;
45065;SDS011;30830;53.704;10.004;2023-05-16T00:48:10;5.40;;;2.00;;
45065;SDS011;30830;53.704;10.004;2023-05-16T00:50:37;4.03;;;2.10;;
45065;SDS011;30830;53.704;10.004;2023-05-16T00:53:02;3.88;;;1.92;;
45065;SDS011;30830;53.704;10.004;2023-05-16T00:55:28;3.30;;;2.30;;
45065;SDS011;30830;53.704;10.004;2023-05-16T00:57:56;4.57;;;2.58;;
45065;SDS011;30830;53.704;10.004;2023-05-16T01:00:22;2.75;;;2.20;;
45065;SDS011;30830;53.704;10.004;2023-05-16T01:02:48;4.88;;;1.85;;
45065;SDS011;30830;53.704;10.004;2023-05-16T01:05:17;3.17;;;2.50;;
45065;SDS011;30830;53.704;10.004;2023-05-16T01:07:45;3.00;;;2.28;;
45065;SDS011;30830;53.704;10.004;2023-05-16T01:10:11;2.28;;;2.00;;
45065;SDS011;30830;53.704;10.004;2023-05-16T01:12:40;3.20;;;2.35;;
45065;SDS011;30830;53.704;10.004;2023-05-16T01:18:21;4.55;;;2.17;;
45065;SDS011;30830;53.704;10.004;2023-05-16T01:21:00;2.78;;;1.85;;
45065;SDS011;30830;53.704;10.004;2023-05-16T01:23:40;5.85;;;2.22;;
45065;SDS011;30830;53.704;10.004;2023-05-16T01:28:48;5.45;;;2.40;;
45065;SDS011;30830;53.704;10.004;2023-05-16T01:31:14;2.55;;;2.03;;
45065;SDS011;30830;53.704;10.004;2023-05-16T01:33:41;5.93;;;2.85;;
45065;SDS011;30830;53.704;10.004;2023-05-16T01:36:12;4.47;;;2.47;;
45065;SDS011;30830;53.704;10.004;2023-05-16T01:46:53;4.32;;;2.72;;
45065;SDS011;30830;53.704;10.004;2023-05-16T01:49:24;4.45;;;2.50;;
45065;SDS011;30830;53.704;10.004;2023-05-16T01:51:59;10.48;;;2.30;;
45065;SDS011;30830;53.704;10.004;2023-05-16T01:54:26;5.78;;;1.92;;
45065;SDS011;30830;53.704;10.004;2023-05-16T01:56:56;4.47;;;2.10;;
45065;SDS011;30830;53.704;10.004;2023-05-16T01:59:22;6.60;;;2.42;;
45065;SDS011;30830;53.704;10.004;2023-05-16T02:01:49;5.78;;;2.05;;
45065;SDS011;30830;53.704;10.004;2023-05-16T02:04:18;8.13;;;2.08;;
45065;SDS011;30830;53.704;10.004;2023-05-16T02:06:43;6.13;;;1.55;;
45065;SDS011;30830;53.704;10.004;2023-05-16T02:09:10;6.38;;;1.85;;
45065;SDS011;30830;53.704;10.004;2023-05-16T02:11:35;5.13;;;2.13;;
45065;SDS011;30830;53.704;10.004;2023-05-16T02:14:01;5.15;;;1.25;;
45065;SDS011;30830;53.704;10.004;2023-05-16T02:16:28;7.07;;;1.50;;
45065;SDS011;30830;53.704;10.004;2023-05-16T02:18:55;5.88;;;1.75;;
45065;SDS011;30830;53.704;10.004;2023-05-16T02:21:20;7.50;;;1.92;;
45065;SDS011;30830;53.704;10.004;2023-05-16T02:23:46;10.60;;;2.70;;
45065;SDS011;30830;53.704;10.004;2023-05-16T02:26:11;5.68;;;1.95;;
45065;SDS011;30830;53.704;10.004;2023-05-16T02:28:37;5.28;;;1.60;;
45065;SDS011;30830;53.704;10.004;2023-05-16T02:31:03;4.35;;;1.92;;
45065;SDS011;30830;53.704;10.004;2023-05-16T02:33:29;9.52;;;2.33;;
45065;SDS011;30830;53.704;10.004;2023-05-16T02:35:54;6.53;;;2.13;;
45065;SDS011;30830;53.704;10.004;2023-05-16T02:38:20;7.35;;;2.38;;
45065;SDS011;30830;53.704;10.004;2023-05-16T02:40:46;7.00;;;1.83;;
45065;SDS011;30830;53.704;10.004;2023-05-16T02:43:12;9.80;;;2.08;;
45065;SDS011;30830;53.704;10.004;2023-05-16T02:45:38;7.60;;;1.98;;
45065;SDS011;30830;53.704;10.004;2023-05-16T02:48:03;5.25;;;1.92;;
45065;SDS011;30830;53.704;10.004;2023-05-16T02:50:29;8.05;;;2.17;;
45065;SDS011;30830;53.704;10.004;2023-05-16T02:52:55;8.68;;;2.15;;
45065;SDS011;30830;53.704;10.004;2023-05-16T02:55:23;5.80;;;1.60;;
45065;SDS011;30830;53.704;10.004;2023-05-16T02:57:53;4.72;;;1.55;;
45065;SDS011;30830;53.704;10.004;2023-05-16T03:00:18;5.60;;;2.28;;
45065;SDS011;30830;53.704;10.004;2023-05-16T03:02:44;5.22;;;1.98;;
45065;SDS011;30830;53.704;10.004;2023-05-16T03:05:10;6.63;;;2.20;;
45065;SDS011;30830;53.704;10.004;2023-05-16T03:07:37;11.68;;;2.40;;
45065;SDS011;30830;53.704;10.004;2023-05-16T03:10:02;3.95;;;1.40;;
45065;SDS011;30830;53.704;10.004;2023-05-16T03:12:28;7.93;;;1.67;;
45065;SDS011;30830;53.704;10.004;2023-05-16T03:14:54;9.70;;;2.65;;
45065;SDS011;30830;53.704;10.004;2023-05-16T03:17:20;4.80;;;2.10;;
45065;SDS011;30830;53.704;10.004;2023-05-16T03:19:45;7.53;;;2.17;;
45065;SDS011;30830;53.704;10.004;2023-05-16T03:22:11;11.60;;;2.65;;
45065;SDS011;30830;53.704;10.004;2023-05-16T03:24:37;9.07;;;2.13;;
45065;SDS011;30830;53.704;10.004;2023-05-16T03:27:02;17.52;;;2.78;;
45065;SDS011;30830;53.704;10.004;2023-05-16T03:29:28;11.73;;;2.65;;
45065;SDS011;30830;53.704;10.004;2023-05-16T03:31:55;8.75;;;2.88;;
45065;SDS011;30830;53.704;10.004;2023-05-16T03:34:20;12.23;;;2.33;;
45065;SDS011;30830;53.704;10.004;2023-05-16T03:36:47;9.02;;;2.20;;
45065;SDS011;30830;53.704;10.004;2023-05-16T03:39:14;5.43;;;2.00;;
45065;SDS011;30830;53.704;10.004;2023-05-16T03:41:40;6.72;;;2.03;;
45065;SDS011;30830;53.704;10.004;2023-05-16T03:44:06;8.88;;;3.10;;
45065;SDS011;30830;53.704;10.004;2023-05-16T03:46:31;12.85;;;3.17;;
45065;SDS011;30830;53.704;10.004;2023-05-16T03:48:57;8.32;;;2.30;;
45065;SDS011;30830;53.704;10.004;2023-05-16T03:51:23;10.27;;;2.38;;
45065;SDS011;30830;53.704;10.004;2023-05-16T03:53:48;9.60;;;2.45;;
45065;SDS011;30830;53.704;10.004;2023-05-16T03:56:14;8.57;;;2.55;;
45065;SDS011;30830;53.704;10.004;2023-05-16T03:58:40;9.02;;;2.17;;
45065;SDS011;30830;53.704;10.004;2023-05-16T04:01:05;11.05;;;2.40;;
45065;SDS011;30830;53.704;10.004;2023-05-16T04:03:31;8.95;;;2.33;;
45065;SDS011;30830;53.704;10.004;2023-05-16T04:05:58;6.20;;;2.83;;
45065;SDS011;30830;53.704;10.004;2023-05-16T04:08:24;10.27;;;2.25;;
45065;SDS011;30830;53.704;10.004;2023-05-16T04:10:49;11.60;;;1.92;;
45065;SDS011;30830;53.704;10.004;2023-05-16T04:13:15;9.93;;;2.35;;
45065;SDS011;30830;53.704;10.004;2023-05-16T04:15:41;10.73;;;2.97;;
45065;SDS011;30830;53.704;10.004;2023-05-16T04:18:07;7.45;;;1.90;;
45065;SDS011;30830;53.704;10.004;2023-05-16T04:20:33;9.30;;;1.70;;
45065;SDS011;30830;53.704;10.004;2023-05-16T04:22:59;10.82;;;2.88;;
45065;SDS011;30830;53.704;10.004;2023-05-16T04:25:25;15.70;;;2.45;;
45065;SDS011;30830;53.704;10.004;2023-05-16T04:27:50;8.73;;;2.45;;
45065;SDS011;30830;53.704;10.004;2023-05-16T04:30:16;9.07;;;1.90;;
45065;SDS011;30830;53.704;10.004;2023-05-16T04:32:42;14.38;;;2.92;;
45065;SDS011;30830;53.704;10.004;2023-05-16T04:35:07;11.52;;;1.95;;
45065;SDS011;30830;53.704;10.004;2023-05-16T04:37:33;8.90;;;2.28;;
45065;SDS011;30830;53.704;10.004;2023-05-16T04:40:00;8.07;;;2.22;;
45065;SDS011;30830;53.704;10.004;2023-05-16T04:42:26;9.43;;;2.20;;
45065;SDS011;30830;53.704;10.004;2023-05-16T04:44:51;6.78;;;1.60;;
45065;SDS011;30830;53.704;10.004;2023-05-16T04:47:17;9.57;;;2.92;;
45065;SDS011;30830;53.704;10.004;2023-05-16T04:49:42;11.23;;;2.42;;
45065;SDS011;30830;53.704;10.004;2023-05-16T04:52:08;8.90;;;1.85;;
45065;SDS011;30830;53.704;10.004;2023-05-16T04:54:36;8.98;;;2.08;;
45065;SDS011;30830;53.704;10.004;2023-05-16T04:57:03;7.50;;;1.88;;
45065;SDS011;30830;53.704;10.004;2023-05-16T04:59:28;12.65;;;2.08;;
45065;SDS011;30830;53.704;10.004;2023-05-16T05:01:54;8.18;;;2.28;;
45065;SDS011;30830;53.704;10.004;2023-05-16T05:04:20;7.10;;;1.83;;
45065;SDS011;30830;53.704;10.004;2023-05-16T05:06:46;12.75;;;1.80;;
45065;SDS011;30830;53.704;10.004;2023-05-16T05:09:12;15.40;;;2.40;;
45065;SDS011;30830;53.704;10.004;2023-05-16T05:11:37;8.27;;;2.25;;
45065;SDS011;30830;53.704;10.004;2023-05-16T05:14:03;8.32;;;1.60;;
45065;SDS011;30830;53.704;10.004;2023-05-16T05:16:29;11.15;;;2.10;;
45065;SDS011;30830;53.704;10.004;2023-05-16T05:18:54;8.82;;;1.98;;
45065;SDS011;30830;53.704;10.004;2023-05-16T05:21:20;7.22;;;1.70;;
45065;SDS011;30830;53.704;10.004;2023-05-16T05:23:48;6.80;;;1.90;;
45065;SDS011;30830;53.704;10.004;2023-05-16T05:26:13;10.40;;;2.55;;
45065;SDS011;30830;53.704;10.004;2023-05-16T05:28:39;7.63;;;1.60;;
45065;SDS011;30830;53.704;10.004;2023-05-16T05:31:05;7.15;;;1.75;;
45065;SDS011;30830;53.704;10.004;2023-05-16T05:33:32;11.25;;;1.88;;
45065;SDS011;30830;53.704;10.004;2023-05-16T05:35:57;8.20;;;1.58;;
45065;SDS011;30830;53.704;10.004;2023-05-16T05:38:23;6.70;;;1.63;;
45065;SDS011;30830;53.704;10.004;2023-05-16T05:40:49;8.85;;;2.72;;
45065;SDS011;30830;53.704;10.004;2023-05-16T05:43:15;7.05;;;1.98;;
45065;SDS011;30830;53.704;10.004;2023-05-16T05:45:40;6.28;;;1.88;;
45065;SDS011;30830;53.704;10.004;2023-05-16T05:48:06;7.25;;;1.63;;
45065;SDS011;30830;53.704;10.004;2023-05-16T05:50:32;6.50;;;2.17;;
45065;SDS011;30830;53.704;10.004;2023-05-16T05:52:58;8.70;;;1.98;;
45065;SDS011;30830;53.704;10.004;2023-05-16T05:55:23;9.18;;;1.58;;
45065;SDS011;30830;53.704;10.004;2023-05-16T05:57:50;7.55;;;1.98;;
45065;SDS011;30830;53.704;10.004;2023-05-16T06:00:16;11.25;;;2.20;;
45065;SDS011;30830;53.704;10.004;2023-05-16T06:02:42;9.00;;;2.40;;
45065;SDS011;30830;53.704;10.004;2023-05-16T06:05:07;7.28;;;1.88;;
45065;SDS011;30830;53.704;10.004;2023-05-16T06:07:33;5.57;;;1.83;;
45065;SDS011;30830;53.704;10.004;2023-05-16T06:09:59;7.97;;;1.70;;
45065;SDS011;30830;53.704;10.004;2023-05-16T06:12:28;7.07;;;1.95;;
45065;SDS011;30830;53.704;10.004;2023-05-16T06:14:54;7.30;;;1.65;;
45065;SDS011;30830;53.704;10.004;2023-05-16T06:17:20;4.00;;;1.60;;
45065;SDS011;30830;53.704;10.004;2023-05-16T06:19:46;3.28;;;1.15;;
45065;SDS011;30830;53.704;10.004;2023-05-16T06:22:12;7.40;;;1.80;;
45065;SDS011;30830;53.704;10.004;2023-05-16T06:24:37;6.72;;;2.15;;
45065;SDS011;30830;53.704;10.004;2023-05-16T06:27:03;6.38;;;1.60;;
45065;SDS011;30830;53.704;10.004;2023-05-16T06:29:28;14.07;;;1.85;;
45065;SDS011;30830;53.704;10.004;2023-05-16T06:31:54;9.68;;;1.42;;
45065;SDS011;30830;53.704;10.004;2023-05-16T06:34:20;7.40;;;1.50;;
45065;SDS011;30830;53.704;10.004;2023-05-16T06:36:51;14.05;;;1.63;;
45065;SDS011;30830;53.704;10.004;2023-05-16T06:39:17;14.23;;;2.13;;
45065;SDS011;30830;53.704;10.004;2023-05-16T06:41:42;7.13;;;1.25;;
45065;SDS011;30830;53.704;10.004;2023-05-16T06:44:08;5.65;;;1.63;;
45065;SDS011;30830;53.704;10.004;2023-05-16T06:46:33;8.77;;;1.05;;
45065;SDS011;30830;53.704;10.004;2023-05-16T06:48:59;5.82;;;1.35;;
45065;SDS011;30830;53.704;10.004;2023-05-16T06:51:24;12.07;;;1.40;;
45065;SDS011;30830;53.704;10.004;2023-05-16T06:53:50;10.40;;;2.58;;
45065;SDS011;30830;53.704;10.004;2023-05-16T06:56:16;6.95;;;1.67;;
45065;SDS011;30830;53.704;10.004;2023-05-16T06:58:41;10.68;;;2.13;;
45065;SDS011;30830;53.704;10.004;2023-05-16T07:01:07;9.85;;;1.60;;
45065;SDS011;30830;53.704;10.004;2023-05-16T07:03:32;6.47;;;1.30;;
45065;SDS011;30830;53.704;10.004;2023-05-16T07:05:58;6.68;;;1.98;;
45065;SDS011;30830;53.704;10.004;2023-05-16T07:08:24;9.10;;;2.47;;
45065;SDS011;30830;53.704;10.004;2023-05-16T07:10:49;7.93;;;1.75;;
45065;SDS011;30830;53.704;10.004;2023-05-16T07:13:15;6.90;;;1.63;;
45065;SDS011;30830;53.704;10.004;2023-05-16T07:15:41;6.90;;;1.60;;
45065;SDS011;30830;53.704;10.004;2023-05-16T07:18:06;9.25;;;1.50;;
45065;SDS011;30830;53.704;10.004;2023-05-16T07:20:32;3.35;;;1.40;;
45065;SDS011;30830;53.704;10.004;2023-05-16T07:22:58;9.35;;;1.50;;
45065;SDS011;30830;53.704;10.004;2023-05-16T07:25:24;6.50;;;1.60;;
45065;SDS011;30830;53.704;10.004;2023-05-16T07:27:50;7.07;;;2.22;;
45065;SDS011;30830;53.704;10.004;2023-05-16T07:30:15;11.38;;;1.48;;
45065;SDS011;30830;53.704;10.004;2023-05-16T07:32:41;10.45;;;2.05;;
45065;SDS011;30830;53.704;10.004;2023-05-16T07:35:07;7.45;;;1.30;;
45065;SDS011;30830;53.704;10.004;2023-05-16T07:37:34;7.53;;;2.25;;
45065;SDS011;30830;53.704;10.004;2023-05-16T07:40:00;7.53;;;1.30;;
45065;SDS011;30830;53.704;10.004;2023-05-16T07:42:25;4.35;;;1.13;;
45065;SDS011;30830;53.704;10.004;2023-05-16T07:44:51;5.78;;;1.10;;
45065;SDS011;30830;53.704;10.004;2023-05-16T07:47:16;7.65;;;1.48;;
45065;SDS011;30830;53.704;10.004;2023-05-16T07:49:42;5.53;;;1.65;;
45065;SDS011;30830;53.704;10.004;2023-05-16T07:52:08;2.65;;;1.30;;
45065;SDS011;30830;53.704;10.004;2023-05-16T07:54:33;5.28;;;1.10;;
45065;SDS011;30830;53.704;10.004;2023-05-16T07:57:00;3.60;;;0.85;;
45065;SDS011;30830;53.704;10.004;2023-05-16T07:59:26;7.88;;;1.35;;
45065;SDS011;30830;53.704;10.004;2023-05-16T08:01:52;5.53;;;1.33;;
45065;SDS011;30830;53.704;10.004;2023-05-16T08:04:19;5.78;;;1.77;;
45065;SDS011;30830;53.704;10.004;2023-05-16T08:06:44;1.40;;;0.65;;
45065;SDS011;30830;53.704;10.004;2023-05-16T08:09:10;4.55;;;1.38;;
45065;SDS011;30830;53.704;10.004;2023-05-16T08:11:35;8.35;;;1.58;;
45065;SDS011;30830;53.704;10.004;2023-05-16T08:14:03;3.30;;;1.40;;
45065;SDS011;30830;53.704;10.004;2023-05-16T08:16:29;3.28;;;0.90;;
45065;SDS011;30830;53.704;10.004;2023-05-16T08:18:55;4.72;;;1.15;;
45065;SDS011;30830;53.704;10.004;2023-05-16T08:21:20;5.80;;;1.50;;
45065;SDS011;30830;53.704;10.004;2023-05-16T08:23:46;11.15;;;1.23;;
45065;SDS011;30830;53.704;10.004;2023-05-16T08:26:11;7.03;;;1.33;;
45065;SDS011;30830;53.704;10.004;2023-05-16T08:28:37;5.80;;;1.23;;
45065;SDS011;30830;53.704;10.004;2023-05-16T08:31:02;3.53;;;1.00;;
45065;SDS011;30830;53.704;10.004;2023-05-16T08:33:28;5.18;;;1.20;;
45065;SDS011;30830;53.704;10.004;2023-05-16T08:35:54;5.13;;;0.80;;
45065;SDS011;30830;53.704;10.004;2023-05-16T08:38:22;5.82;;;1.52;;
45065;SDS011;30830;53.704;10.004;2023-05-16T08:40:48;4.65;;;1.02;;
45065;SDS011;30830;53.704;10.004;2023-05-16T08:43:13;5.20;;;1.15;;
45065;SDS011;30830;53.704;10.004;2023-05-16T08:45:39;4.43;;;1.15;;
45065;SDS011;30830;53.704;10.004;2023-05-16T08:48:05;2.17;;;0.85;;
45065;SDS011;30830;53.704;10.004;2023-05-16T08:50:31;5.13;;;1.05;;
45065;SDS011;30830;53.704;10.004;2023-05-16T08:52:57;4.78;;;1.05;;
45065;SDS011;30830;53.704;10.004;2023-05-16T08:55:30;3.72;;;1.15;;
45065;SDS011;30830;53.704;10.004;2023-05-16T08:57:56;6.82;;;1.23;;
45065;SDS011;30830;53.704;10.004;2023-05-16T09:00:21;6.43;;;1.60;;
45065;SDS011;30830;53.704;10.004;2023-05-16T09:02:48;3.05;;;1.08;;
45065;SDS011;30830;53.704;10.004;2023-05-16T09:05:14;6.55;;;1.38;;
45065;SDS011;30830;53.704;10.004;2023-05-16T09:07:41;6.10;;;1.20;;
45065;SDS011;30830;53.704;10.004;2023-05-16T09:10:07;4.13;;;1.80;;
45065;SDS011;30830;53.704;10.004;2023-05-16T09:12:34;3.42;;;0.98;;
45065;SDS011;30830;53.704;10.004;2023-05-16T09:15:04;2.65;;;0.60;;
45065;SDS011;30830;53.704;10.004;2023-05-16T09:17:41;6.78;;;0.70;;
45065;SDS011;30830;53.704;10.004;2023-05-16T09:22:57;5.10;;;1.20;;
45065;SDS011;30830;53.704;10.004;2023-05-16T09:25:24;7.35;;;1.20;;
45065;SDS011;30830;53.704;10.004;2023-05-16T09:27:53;3.30;;;0.93;;
45065;SDS011;30830;53.704;10.004;2023-05-16T09:30:20;7.22;;;1.50;;
45065;SDS011;30830;53.704;10.004;2023-05-16T09:32:51;4.93;;;1.10;;
45065;SDS011;30830;53.704;10.004;2023-05-16T09:35:18;7.63;;;1.55;;
45065;SDS011;30830;53.704;10.004;2023-05-16T09:37:48;3.08;;;1.35;;
45065;SDS011;30830;53.704;10.004;2023-05-16T09:40:15;6.05;;;1.30;;
45065;SDS011;30830;53.704;10.004;2023-05-16T09:42:50;7.55;;;1.73;;
45065;SDS011;30830;53.704;10.004;2023-05-16T09:45:29;4.82;;;1.25;;
45065;SDS011;30830;53.704;10.004;2023-05-16T09:50:39;3.30;;;0.88;;
45065;SDS011;30830;53.704;10.004;2023-05-16T09:53:11;4.97;;;1.20;;
45065;SDS011;30830;53.704;10.004;2023-05-16T09:55:37;4.13;;;1.27;;
45065;SDS011;30830;53.704;10.004;2023-05-16T09:58:03;5.45;;;1.23;;
45065;SDS011;30830;53.704;10.004;2023-05-16T10:00:29;6.43;;;1.58;;
45065;SDS011;30830;53.704;10.004;2023-05-16T10:02:56;5.85;;;0.90;;
45065;SDS011;30830;53.704;10.004;2023-05-16T10:05:24;2.40;;;0.63;;
45065;SDS011;30830;53.704;10.004;2023-05-16T10:07:54;3.55;;;1.30;;
45065;SDS011;30830;53.704;10.004;2023-05-16T10:10:21;2.33;;;0.98;;
45065;SDS011;30830;53.704;10.004;2023-05-16T10:12:48;6.55;;;1.00;;
45065;SDS011;30830;53.704;10.004;2023-05-16T10:15:15;2.13;;;0.80;;
45065;SDS011;30830;53.704;10.004;2023-05-16T10:17:41;3.60;;;0.70;;
45065;SDS011;30830;53.704;10.004;2023-05-16T10:20:09;4.20;;;0.90;;
45065;SDS011;30830;53.704;10.004;2023-05-16T10:22:38;5.00;;;1.42;;
45065;SDS011;30830;53.704;10.004;2023-05-16T10:25:07;3.92;;;1.45;;
45065;SDS011;30830;53.704;10.004;2023-05-16T10:27:53;4.93;;;1.45;;
45065;SDS011;30830;53.704;10.004;2023-05-16T10:30:19;5.40;;;1.30;;
45065;SDS011;30830;53.704;10.004;2023-05-16T10:32:45;5.10;;;1.38;;
45065;SDS011;30830;53.704;10.004;2023-05-16T10:35:11;1.48;;;1.02;;
45065;SDS011;30830;53.704;10.004;2023-05-16T10:37:37;4.43;;;0.98;;
45065;SDS011;30830;53.704;10.004;2023-05-16T10:40:04;3.33;;;1.10;;
45065;SDS011;30830;53.704;10.004;2023-05-16T10:42:32;3.67;;;1.15;;
45065;SDS011;30830;53.704;10.004;2023-05-16T10:45:16;3.33;;;1.08;;
45065;SDS011;30830;53.704;10.004;2023-05-16T10:53:17;4.65;;;1.35;;
45065;SDS011;30830;53.704;10.004;2023-05-16T11:06:31;8.10;;;1.63;;
45065;SDS011;30830;53.704;10.004;2023-05-16T11:19:55;5.00;;;1.17;;
45065;SDS011;30830;53.704;10.004;2023-05-16T11:22:29;4.15;;;1.73;;
45065;SDS011;30830;53.704;10.004;2023-05-16T11:27:26;9.52;;;1.25;;
45065;SDS011;30830;53.704;10.004;2023-05-16T11:29:54;3.20;;;1.00;;
45065;SDS011;30830;53.704;10.004;2023-05-16T11:32:24;2.92;;;1.25;;
45065;SDS011;30830;53.704;10.004;2023-05-16T11:34:50;4.85;;;1.23;;
45065;SDS011;30830;53.704;10.004;2023-05-16T11:37:16;1.88;;;0.60;;
45065;SDS011;30830;53.704;10.004;2023-05-16T11:39:44;3.78;;;0.80;;
45065;SDS011;30830;53.704;10.004;2023-05-16T11:42:10;2.65;;;0.90;;
45065;SDS011;30830;53.704;10.004;2023-05-16T11:44:37;4.32;;;1.10;;
45065;SDS011;30830;53.704;10.004;2023-05-16T11:47:04;4.22;;;1.10;;
45065;SDS011;30830;53.704;10.004;2023-05-16T11:49:30;9.40;;;2.33;;
45065;SDS011;30830;53.704;10.004;2023-05-16T11:51:56;6.18;;;1.35;;
45065;SDS011;30830;53.704;10.004;2023-05-16T11:54:22;4.20;;;1.15;;
45065;SDS011;30830;53.704;10.004;2023-05-16T11:56:48;4.75;;;0.70;;
45065;SDS011;30830;53.704;10.004;2023-05-16T11:59:15;3.70;;;0.70;;
45065;SDS011;30830;53.704;10.004;2023-05-16T12:01:41;3.53;;;0.70;;
45065;SDS011;30830;53.704;10.004;2023-05-16T12:04:10;3.65;;;1.10;;
45065;SDS011;30830;53.704;10.004;2023-05-16T12:06:38;3.42;;;0.60;;
45065;SDS011;30830;53.704;10.004;2023-05-16T12:09:04;2.22;;;0.95;;
45065;SDS011;30830;53.704;10.004;2023-05-16T12:11:37;2.05;;;1.05;;
45065;SDS011;30830;53.704;10.004;2023-05-16T12:14:04;8.88;;;1.30;;
45065;SDS011;30830;53.704;10.004;2023-05-16T12:16:31;2.75;;;1.10;;
45065;SDS011;30830;53.704;10.004;2023-05-16T12:18:58;3.80;;;0.90;;
45065;SDS011;30830;53.704;10.004;2023-05-16T12:21:26;5.88;;;1.55;;
45065;SDS011;30830;53.704;10.004;2023-05-16T12:23:54;4.03;;;0.77;;
45065;SDS011;30830;53.704;10.004;2023-05-16T12:26:28;2.97;;;0.93;;
45065;SDS011;30830;53.704;10.004;2023-05-16T12:28:59;2.85;;;0.90;;
45065;SDS011;30830;53.704;10.004;2023-05-16T12:31:27;4.05;;;1.05;;
45065;SDS011;30830;53.704;10.004;2023-05-16T12:33:56;6.93;;;1.30;;
45065;SDS011;30830;53.704;10.004;2023-05-16T12:36:23;3.60;;;0.60;;
45065;SDS011;30830;53.704;10.004;2023-05-16T12:38:50;6.30;;;1.40;;
45065;SDS011;30830;53.704;10.004;2023-05-16T12:41:20;4.75;;;1.13;;
45065;SDS011;30830;53.704;10.004;2023-05-16T12:43:46;8.95;;;1.23;;
45065;SDS011;30830;53.704;10.004;2023-05-16T12:46:15;6.05;;;0.75;;
45065;SDS011;30830;53.704;10.004;2023-05-16T12:48:43;5.18;;;1.23;;
45065;SDS011;30830;53.704;10.004;2023-05-16T12:51:11;3.53;;;0.95;;
45065;SDS011;30830;53.704;10.004;2023-05-16T12:53:44;9.10;;;1.70;;
45065;SDS011;30830;53.704;10.004;2023-05-16T12:56:11;5.15;;;1.08;;
45065;SDS011;30830;53.704;10.004;2023-05-16T12:58:37;3.75;;;1.00;;
45065;SDS011;30830;53.704;10.004;2023-05-16T13:01:03;2.80;;;1.00;;
45065;SDS011;30830;53.704;10.004;2023-05-16T13:03:30;4.53;;;1.05;;
45065;SDS011;30830;53.704;10.004;2023-05-16T13:05:56;10.70;;;0.80;;
45065;SDS011;30830;53.704;10.004;2023-05-16T13:08:22;2.03;;;0.60;;
45065;SDS011;30830;53.704;10.004;2023-05-16T13:10:48;1.40;;;0.50;;
45065;SDS011;30830;53.704;10.004;2023-05-16T13:13:14;2.80;;;0.77;;
45065;SDS011;30830;53.704;10.004;2023-05-16T13:15:40;1.30;;;0.40;;
45065;SDS011;30830;53.704;10.004;2023-05-16T13:18:08;4.55;;;0.75;;
45065;SDS011;30830;53.704;10.004;2023-05-16T13:20:33;2.97;;;0.77;;
45065;SDS011;30830;53.704;10.004;2023-05-16T13:22:59;3.88;;;1.65;;
45065;SDS011;30830;53.704;10.004;2023-05-16T13:25:24;4.05;;;0.88;;
45065;SDS011;30830;53.704;10.004;2023-05-16T13:27:50;5.40;;;1.48;;
45065;SDS011;30830;53.704;10.004;2023-05-16T13:30:15;2.60;;;1.08;;
45065;SDS011;30830;53.704;10.004;2023-05-16T13:32:41;5.68;;;1.15;;
45065;SDS011;30830;53.704;10.004;2023-05-16T13:35:07;2.67;;;1.05;;
45065;SDS011;30830;53.704;10.004;2023-05-16T13:37:33;3.20;;;0.63;;
45065;SDS011;30830;53.704;10.004;2023-05-16T13:39:59;3.00;;;0.90;;
45065;SDS011;30830;53.704;10.004;2023-05-16T13:42:25;2.65;;;1.00;;
45065;SDS011;30830;53.704;10.004;2023-05-16T13:44:51;1.38;;;0.50;;
45065;SDS011;30830;53.704;10.004;2023-05-16T13:47:17;2.67;;;1.02;;
45065;SDS011;30830;53.704;10.004;2023-05-16T13:49:42;4.65;;;0.60;;
45065;SDS011;30830;53.704;10.004;2023-05-16T13:52:08;4.55;;;1.10;;
45065;SDS011;30830;53.704;10.004;2023-05-16T13:54:33;4.50;;;1.20;;
45065;SDS011;30830;53.704;10.004;2023-05-16T13:56:59;8.43;;;0.90;;
45065;SDS011;30830;53.704;10.004;2023-05-16T13:59:26;3.50;;;0.60;;
45065;SDS011;30830;53.704;10.004;2023-05-16T14:01:51;2.80;;;1.23;;
45065;SDS011;30830;53.704;10.004;2023-05-16T14:04:17;2.38;;;1.13;;
45065;SDS011;30830;53.704;10.004;2023-05-16T14:06:42;5.60;;;1.08;;
45065;SDS011;30830;53.704;10.004;2023-05-16T14:09:08;1.60;;;0.80;;
45065;SDS011;30830;53.704;10.004;2023-05-16T14:11:34;2.33;;;0.80;;
45065;SDS011;30830;53.704;10.004;2023-05-16T14:14:00;4.07;;;1.35;;
45065;SDS011;30830;53.704;10.004;2023-05-16T14:16:25;4.28;;;0.85;;
45065;SDS011;30830;53.704;10.004;2023-05-16T14:18:51;3.45;;;1.02;;
45065;SDS011;30830;53.704;10.004;2023-05-16T14:21:16;2.67;;;1.00;;
45065;SDS011;30830;53.704;10.004;2023-05-16T14:23:42;3.50;;;1.20;;
45065;SDS011;30830;53.704;10.004;2023-05-16T14:26:08;8.77;;;1.23;;
45065;SDS011;30830;53.704;10.004;2023-05-16T14:28:33;6.00;;;1.77;;
45065;SDS011;30830;53.704;10.004;2023-05-16T14:30:59;6.40;;;1.15;;
45065;SDS011;30830;53.704;10.004;2023-05-16T14:33:25;3.97;;;1.27;;
45065;SDS011;30830;53.704;10.004;2023-05-16T14:35:51;4.45;;;1.08;;
45065;SDS011;30830;53.704;10.004;2023-05-16T14:38:17;3.72;;;1.33;;
45065;SDS011;30830;53.704;10.004;2023-05-16T14:40:43;4.78;;;0.63;;
45065;SDS011;30830;53.704;10.004;2023-05-16T14:43:09;9.63;;;1.38;;
45065;SDS011;30830;53.704;10.004;2023-05-16T14:45:36;2.42;;;0.70;;
45065;SDS011;30830;53.704;10.004;2023-05-16T14:48:02;5.88;;;1.90;;
45065;SDS011;30830;53.704;10.004;2023-05-16T14:50:27;2.95;;;0.80;;
45065;SDS011;30830;53.704;10.004;2023-05-16T14:52:53;3.67;;;1.33;;
45065;SDS011;30830;53.704;10.004;2023-05-16T14:55:19;1.92;;;0.40;;
45065;SDS011;30830;53.704;10.004;2023-05-16T14:57:45;3.25;;;1.35;;
45065;SDS011;30830;53.704;10.004;2023-05-16T15:00:11;5.60;;;1.48;;
45065;SDS011;30830;53.704;10.004;2023-05-16T15:02:39;4.13;;;1.15;;
45065;SDS011;30830;53.704;10.004;2023-05-16T15:05:04;3.70;;;0.90;;
45065;SDS011;30830;53.704;10.004;2023-05-16T15:07:30;2.30;;;1.15;;
45065;SDS011;30830;53.704;10.004;2023-05-16T15:09:57;4.70;;;2.00;;
45065;SDS011;30830;53.704;10.004;2023-05-16T15:12:22;2.72;;;1.63;;
45065;SDS011;30830;53.704;10.004;2023-05-16T15:14:48;5.20;;;1.00;;
45065;SDS011;30830;53.704;10.004;2023-05-16T15:17:13;5.13;;;1.70;;
45065;SDS011;30830;53.704;10.004;2023-05-16T15:19:39;7.20;;;1.23;;